Mc Alester Regional Airport
KMLC : rendu visible

Aérodrome :











RETROUVEZ-NOUS SUR...

 
LOGIN :

S'inscrire | Disclaimer

   EN    FR    IT 

 









Légende :    VFR   VFR Marginal   IFR   IFR Intensif   IFR Très Intensif
Visi : 
Plafond : 
>= 8 km
>= 3000ft
5 à 8 km
1000 à 3000 ft
1500m à 5 km
500 à 1000 ft
800 à 1500m
200 à 500 ft
< 800m
< 200 ft
Symboles :   Orages  Brouillard  Fortes neiges  Fortes précipitations  Vent > 20 kt






- Altitude de l'aérodrome : 770 ft


KMLC - Mc Alester Regional

DERNIER METAR :
  • 290553Z AUTO 33011G19KT 10SM FEW075 FEW090 14/03 A3002 RMK AO2 SLP158 T01440028 10222 20128 402500128 51034

METARs EXPIRÉS :
  • 290453Z AUTO 31008KT 10SM FEW070 16/03 A2998 RMK AO2 SLP147 T01560028
  • 290353Z AUTO 31005KT 10SM FEW055 FEW070 SCT090 16/02 A2996 RMK AO2 SLP139 T01610017

TAF KMLC
Valide du 29 à 06h jusqu'au 30 à 06h UTC


290520Z 2906/3006 31008KT P6SM SKC
FM290800 30004KT P6SM SKC
FM291500 24005KT P6SM SCT250
FM300100 VRB03KT P6SM BKN250



MET'MAP, la Météo Aéronautique d'un coup d'oeil ! - Copyright ORBIFLY Décembre 2007 - Disclaimer

ORBIFLY MET'MAP TEAM :

Programmation & Développement : Alexandra Zaïnal
Sur une idée originale de : Baudouin d'Aumeries
Assistance à la programmation : Marc-Olivier Méhu
Soutien technique & logistique : Manuel Goepfert

Contact : metmap@orbifly.com




SOURCES & CREDITS :

   NOAA       Earth
Advisory